Time;durP1;ratioP1;P1;durP2;ratioP2;P2;SDS_P1;SDS_P2;PMS_P1;PMS_P2;Temp;Humidity;BMP_temperature;BMP_pressure;BME280_temperature;BME280_humidity;BME280_pressure;Samples;Min_cycle;Max_cycle;Signal;HPM_P1;HPM_P2
2024/04/20 00:00:02;;;;;;;1.85;0.35;;;10.80;62.70;12.30;101456.00;;;;5339673;26;20847;-77
2024/04/20 00:02:33;;;;;;;1.90;0.28;;;10.80;63.40;12.30;101442.00;;;;5340671;26;20325;-77
2024/04/20 00:05:01;;;;;;;1.17;0.60;;;10.70;62.50;12.30;101453.00;;;;5340457;26;20332;-77
2024/04/20 00:07:30;;;;;;;0.80;0.15;;;10.70;62.60;12.30;101458.00;;;;5339041;26;20303;-77
2024/04/20 00:09:59;;;;;;;2.40;0.45;;;10.70;62.60;12.20;101454.00;;;;5340566;26;20219;-77
2024/04/20 00:12:28;;;;;;;0.65;0.15;;;10.70;62.70;12.30;101455.00;;;;5333485;26;20236;-77
2024/04/20 00:14:56;;;;;;;1.55;0.50;;;10.70;62.70;12.20;101453.00;;;;5309216;26;20236;-77
2024/04/20 00:17:25;;;;;;;0.93;0.20;;;10.70;62.80;12.20;101464.00;;;;5313766;26;20351;-77
2024/04/20 00:19:57;;;;;;;1.02;0.20;;;10.70;62.80;12.20;101466.00;;;;5326162;26;20240;-77
2024/04/20 00:22:26;;;;;;;1.08;0.40;;;10.60;62.80;12.20;101466.00;;;;5309184;26;20268;-78
2024/04/20 00:24:54;;;;;;;1.13;0.45;;;10.60;62.70;12.20;101468.00;;;;5338644;26;20266;-78
2024/04/20 00:27:23;;;;;;;1.85;0.22;;;10.60;62.70;12.20;101473.00;;;;5341799;26;22423;-78
2024/04/20 00:29:51;;;;;;;3.05;0.50;;;10.60;62.90;12.20;101472.00;;;;5343755;26;20219;-78
2024/04/20 00:32:20;;;;;;;1.50;0.68;;;10.60;63.00;12.20;101474.00;;;;5343719;26;20219;-77
2024/04/20 00:34:49;;;;;;;0.70;0.28;;;10.60;63.20;12.20;101477.00;;;;5299147;26;20232;-77
2024/04/20 00:37:20;;;;;;;1.45;0.40;;;10.60;63.40;12.20;101479.00;;;;5310677;26;20240;-77
2024/04/20 00:39:49;;;;;;;1.38;0.40;;;10.60;63.40;12.30;101487.00;;;;5342777;26;20316;-77
2024/04/20 00:42:17;;;;;;;1.58;0.35;;;10.60;63.40;12.30;101486.00;;;;5342675;26;20235;-77
2024/04/20 00:44:46;;;;;;;2.47;0.50;;;10.60;63.50;12.30;101495.00;;;;5343916;26;21064;-78
2024/04/20 00:47:15;;;;;;;1.38;0.50;;;10.60;63.40;12.30;101493.00;;;;5342552;26;20239;-78
2024/04/20 00:49:44;;;;;;;1.17;0.20;;;10.60;63.40;12.20;101488.00;;;;5343452;26;20646;-78
2024/04/20 00:52:13;;;;;;;4.43;0.52;;;10.60;63.20;12.20;101478.00;;;;5343676;26;20311;-78
2024/04/20 00:54:44;;;;;;;1.38;0.32;;;10.60;63.10;12.20;101482.00;;;;5343653;26;20235;-78
2024/04/20 00:57:14;;;;;;;3.95;0.85;;;10.60;63.20;12.20;101491.00;;;;5339324;26;20235;-77
2024/04/20 00:59:43;;;;;;;2.35;0.60;;;10.60;63.20;12.20;101489.00;;;;5334437;26;20243;-78
2024/04/20 01:02:13;;;;;;;2.60;0.50;;;10.60;63.20;12.20;101497.00;;;;5324508;26;20357;-78
2024/04/20 01:04:41;;;;;;;3.15;0.68;;;10.60;63.30;12.30;101501.00;;;;5309647;26;20325;-78
2024/04/20 01:07:10;;;;;;;4.85;0.70;;;10.60;63.40;12.30;101511.00;;;;5340429;26;20227;-78
2024/04/20 01:09:40;;;;;;;1.85;0.55;;;10.60;63.50;12.30;101515.00;;;;5343957;26;20258;-77
2024/04/20 01:12:11;;;;;;;3.95;1.13;;;10.60;63.50;12.30;101518.00;;;;5342294;26;20240;-78
2024/04/20 01:14:40;;;;;;;2.17;0.88;;;10.60;63.50;12.30;101504.00;;;;5343078;26;20344;-78
2024/04/20 01:17:09;;;;;;;1.30;0.32;;;10.60;63.60;12.30;101525.00;;;;5317484;26;20253;-78
2024/04/20 01:19:38;;;;;;;4.82;0.85;;;10.60;63.50;12.30;101522.00;;;;5342287;26;20240;-78
2024/04/20 01:22:07;;;;;;;4.28;0.43;;;10.60;63.30;12.30;101511.00;;;;5341646;26;20278;-78
2024/04/20 01:24:37;;;;;;;5.28;0.80;;;10.60;63.30;12.30;101514.00;;;;5343557;26;20572;-78
2024/04/20 01:27:08;;;;;;;1.95;0.40;;;10.60;63.30;12.20;101513.00;;;;5338551;26;20247;-78
2024/04/20 01:29:36;;;;;;;2.63;0.50;;;10.60;63.40;12.30;101516.00;;;;5343879;26;20345;-78
2024/04/20 01:32:05;;;;;;;2.90;0.73;;;10.60;63.40;12.30;101512.00;;;;5342954;26;20570;-78
2024/04/20 01:34:34;;;;;;;2.60;0.63;;;10.60;63.50;12.30;101512.00;;;;5331192;26;20236;-78
2024/04/20 01:37:03;;;;;;;2.78;0.63;;;10.60;63.50;12.30;101513.00;;;;5310906;26;20255;-78
2024/04/20 01:39:31;;;;;;;2.17;0.60;;;10.60;63.60;12.30;101513.00;;;;5343232;26;20286;-79
2024/04/20 01:42:00;;;;;;;1.17;0.30;;;10.60;63.70;12.30;101514.00;;;;5333442;26;20232;-78
2024/04/20 01:44:31;;;;;;;2.53;0.68;;;10.60;63.80;12.30;101525.00;;;;5308229;26;20294;-79
2024/04/20 01:47:00;;;;;;;5.78;1.20;;;10.60;63.80;12.40;101525.00;;;;5334597;26;20364;-79
2024/04/20 01:49:28;;;;;;;9.35;0.75;;;10.60;63.90;12.40;101543.00;;;;5323604;26;20229;-79
2024/04/20 01:51:57;;;;;;;1.88;0.60;;;10.70;64.00;12.40;101546.00;;;;5316314;26;20298;-79
2024/04/20 01:54:25;;;;;;;0.75;0.28;;;10.60;63.90;12.40;101547.00;;;;5341990;26;20615;-78
2024/04/20 01:56:54;;;;;;;1.23;0.35;;;10.70;63.70;12.40;101541.00;;;;5323070;26;20325;-78
2024/04/20 01:59:23;;;;;;;1.55;0.30;;;10.70;63.60;12.40;101549.00;;;;5343255;26;20415;-78
2024/04/20 02:01:57;;;;;;;3.13;0.47;;;10.70;63.40;12.30;101516.00;;;;5341663;26;20219;-78
2024/04/20 02:04:27;;;;;;;0.63;0.20;;;10.60;63.20;12.30;101533.00;;;;5341725;26;20760;-79
2024/04/20 02:06:56;;;;;;;2.05;0.70;;;10.60;63.20;12.30;101539.00;;;;5341444;26;20247;-78
2024/04/20 02:09:24;;;;;;;0.55;0.22;;;10.60;63.20;12.30;101544.00;;;;5342954;26;20811;-78
2024/04/20 02:11:53;;;;;;;7.20;0.65;;;10.60;63.20;12.30;101536.00;;;;5332624;26;20843;-79
2024/04/20 02:14:22;;;;;;;0.70;0.30;;;10.60;63.20;12.30;101546.00;;;;5308969;26;20314;-78
2024/04/20 02:16:53;;;;;;;1.60;0.30;;;10.60;63.20;12.30;101539.00;;;;5334705;26;20348;-78
2024/04/20 02:19:22;;;;;;;2.55;0.45;;;10.50;63.20;12.20;101544.00;;;;5324095;26;20240;-79
2024/04/20 02:21:51;;;;;;;1.60;0.45;;;10.60;63.40;12.20;101553.00;;;;5325386;26;20291;-78
2024/04/20 02:24:19;;;;;;;1.40;0.45;;;10.50;63.30;12.20;101555.00;;;;5330932;26;20274;-79
2024/04/20 02:26:48;;;;;;;3.08;0.45;;;10.50;63.40;12.30;101550.00;;;;5339357;26;20344;-78
2024/04/20 02:29:16;;;;;;;4.72;0.93;;;10.50;63.50;12.30;101552.00;;;;5343150;26;20316;-78
2024/04/20 02:31:45;;;;;;;1.98;0.60;;;10.50;63.70;12.30;101549.00;;;;5328589;26;20288;-78
2024/04/20 02:34:17;;;;;;;1.77;0.40;;;10.50;63.60;12.30;101552.00;;;;5312538;26;21201;-78
2024/04/20 02:36:45;;;;;;;2.90;0.60;;;10.50;63.70;12.30;101550.00;;;;5343893;26;20248;-79
2024/04/20 02:39:14;;;;;;;2.50;0.57;;;10.50;63.70;12.30;101548.00;;;;5343794;26;20219;-79
2024/04/20 02:41:42;;;;;;;1.83;0.65;;;10.50;63.70;12.30;101559.00;;;;5342928;26;20227;-79
2024/04/20 02:44:11;;;;;;;4.72;0.70;;;10.50;63.70;12.30;101554.00;;;;5340296;26;20294;-79
2024/04/20 02:46:39;;;;;;;2.40;0.43;;;10.50;63.80;12.30;101564.00;;;;5339326;26;20243;-78
2024/04/20 02:49:08;;;;;;;7.72;0.73;;;10.50;63.80;12.30;101561.00;;;;5340709;26;20763;-79
2024/04/20 02:51:39;;;;;;;3.67;0.68;;;10.50;63.80;12.30;101565.00;;;;5340821;26;20622;-79
2024/04/20 02:54:08;;;;;;;1.58;0.60;;;10.50;63.80;12.30;101566.00;;;;5342006;26;20391;-79
2024/04/20 02:56:36;;;;;;;3.00;0.65;;;10.50;63.70;12.30;101561.00;;;;5335299;26;20300;-79
2024/04/20 02:59:05;;;;;;;6.18;0.65;;;10.50;63.60;12.20;101574.00;;;;5341789;26;20289;-78
2024/04/20 03:01:34;;;;;;;8.35;0.77;;;10.50;63.60;12.20;101576.00;;;;5340315;26;20274;-78
2024/04/20 03:04:00;;;;;;;5.25;1.13;;;10.50;63.50;12.20;101575.00;;;;5341921;26;20211;-79
2024/04/20 03:06:29;;;;;;;6.60;0.80;;;10.50;63.40;12.10;101584.00;;;;5320884;26;20236;-78
2024/04/20 03:09:00;;;;;;;6.15;0.77;;;10.50;63.30;12.10;101577.00;;;;5310010;26;20318;-79
2024/04/20 03:11:29;;;;;;;4.18;0.80;;;10.40;63.20;12.00;101581.00;;;;5321252;26;20356;-78
2024/04/20 03:13:57;;;;;;;5.70;0.93;;;10.40;63.10;12.00;101576.00;;;;5323004;26;20312;-78
2024/04/20 03:16:26;;;;;;;5.38;0.98;;;10.40;63.10;12.00;101578.00;;;;5340011;26;20243;-78
2024/04/20 03:18:55;;;;;;;9.05;1.40;;;10.30;62.90;12.00;101585.00;;;;5340582;26;20247;-78
2024/04/20 03:21:23;;;;;;;3.25;0.90;;;10.30;63.00;11.90;101583.00;;;;5325717;26;20236;-78
2024/04/20 03:23:52;;;;;;;3.28;0.95;;;10.30;63.70;11.90;101584.00;;;;5322334;26;20235;-78
2024/04/20 03:26:23;;;;;;;5.80;1.20;;;10.30;63.00;11.90;101583.00;;;;5339144;26;20347;-78
2024/04/20 03:28:51;;;;;;;3.15;0.85;;;10.20;63.10;11.90;101583.00;;;;5340952;26;20336;-78
2024/04/20 03:31:20;;;;;;;4.63;1.15;;;10.20;63.30;11.90;101589.00;;;;5340456;26;20385;-79
2024/04/20 03:33:49;;;;;;;6.60;0.95;;;10.20;63.30;11.90;101587.00;;;;5341586;26;20223;-79
2024/04/20 03:36:19;;;;;;;3.67;1.23;;;10.20;63.40;11.90;101591.00;;;;5310106;26;20244;-78
2024/04/20 03:38:49;;;;;;;3.75;1.17;;;10.20;63.40;11.90;101584.00;;;;5318317;26;20299;-78
2024/04/20 03:41:17;;;;;;;6.45;1.10;;;10.20;63.40;11.90;101587.00;;;;5320617;26;20227;-78
2024/04/20 03:43:48;;;;;;;4.47;0.80;;;10.20;63.30;11.80;101598.00;;;;5340385;26;20735;-79
2024/04/20 03:46:17;;;;;;;4.22;1.27;;;10.10;63.30;11.80;101599.00;;;;5324360;26;20248;-78
2024/04/20 03:48:48;;;;;;;5.10;1.02;;;10.10;63.30;11.80;101598.00;;;;5335707;26;20329;-78
2024/04/20 03:51:16;;;;;;;5.70;1.23;;;10.10;63.30;11.80;101601.00;;;;5341204;26;20232;-78
2024/04/20 03:53:45;;;;;;;4.05;1.23;;;10.10;63.40;11.80;101615.00;;;;5341592;26;20227;-79
2024/04/20 03:56:14;;;;;;;5.63;1.40;;;10.10;63.30;11.70;101621.00;;;;5322682;26;20244;-79
2024/04/20 03:58:42;;;;;;;5.18;1.40;;;10.10;63.20;11.70;101623.00;;;;5323574;26;20337;-78
2024/04/20 04:01:13;;;;;;;6.78;1.35;;;10.10;63.30;11.70;101621.00;;;;5324756;26;20348;-78
2024/04/20 04:03:42;;;;;;;6.45;1.23;;;10.10;64.10;11.70;101626.00;;;;5340338;26;20231;-78
2024/04/20 04:06:11;;;;;;;4.38;0.95;;;10.00;63.40;11.70;101632.00;;;;5338939;26;20306;-78
2024/04/20 04:08:39;;;;;;;7.35;1.10;;;10.00;63.40;11.70;101641.00;;;;5339126;26;20231;-78
2024/04/20 04:11:08;;;;;;;4.57;1.20;;;10.00;63.50;11.70;101635.00;;;;5306346;26;20351;-78
2024/04/20 04:13:37;;;;;;;4.00;1.02;;;10.00;63.50;11.70;101638.00;;;;5309792;26;20291;-79
2024/04/20 04:16:06;;;;;;;3.22;0.80;;;10.00;63.60;11.70;101651.00;;;;5330415;26;20340;-78
2024/04/20 04:18:38;;;;;;;4.10;1.48;;;10.00;63.70;11.60;101639.00;;;;5354017;26;20309;-78
2024/04/20 04:21:10;;;;;;;5.32;1.45;;;10.00;63.70;11.70;101643.00;;;;5315500;26;20252;-78
2024/04/20 04:23:38;;;;;;;4.65;0.80;;;10.00;63.80;11.70;101656.00;;;;5319182;26;20734;-78
2024/04/20 04:26:08;;;;;;;5.55;1.20;;;10.00;63.80;11.70;101657.00;;;;5332340;26;20239;-78
2024/04/20 04:28:36;;;;;;;4.82;0.85;;;10.00;63.90;11.70;101664.00;;;;5321415;26;20682;-80
2024/04/20 04:31:05;;;;;;;5.55;0.90;;;10.00;63.90;11.70;101659.00;;;;5322543;26;20239;-79
2024/04/20 04:33:34;;;;;;;5.95;0.82;;;10.00;63.90;11.70;101661.00;;;;5330575;26;20244;-79
2024/04/20 04:36:06;;;;;;;5.38;1.35;;;10.00;64.00;11.70;101675.00;;;;5325324;26;20333;-79
2024/04/20 04:38:35;;;;;;;2.92;0.95;;;10.00;64.00;11.70;101679.00;;;;5339155;26;20231;-80
2024/04/20 04:41:03;;;;;;;5.25;1.20;;;10.10;64.00;11.70;101680.00;;;;5324478;26;20344;-78
2024/04/20 04:43:32;;;;;;;6.40;0.63;;;10.10;64.10;11.70;101683.00;;;;5323368;26;20679;-78
2024/04/20 04:46:01;;;;;;;4.63;0.70;;;10.10;64.10;11.70;101683.00;;;;5329150;26;20331;-79
2024/04/20 04:48:29;;;;;;;3.00;0.60;;;10.10;64.10;11.80;101688.00;;;;5331277;26;20244;-79
2024/04/20 04:50:58;;;;;;;4.05;0.60;;;10.10;64.20;11.80;101698.00;;;;5310369;26;20345;-78
2024/04/20 04:53:29;;;;;;;4.05;0.88;;;10.10;64.20;11.80;101703.00;;;;5333273;26;20344;-78
2024/04/20 04:55:58;;;;;;;6.75;1.35;;;10.10;64.20;11.80;101696.00;;;;5335933;26;20397;-80
2024/04/20 04:58:26;;;;;;;5.90;1.23;;;10.10;64.10;11.80;101706.00;;;;5329946;26;20366;-78
2024/04/20 05:00:55;;;;;;;6.38;1.15;;;10.10;64.10;11.80;101710.00;;;;5333570;26;20370;-79
2024/04/20 05:03:24;;;;;;;10.93;1.20;;;10.20;64.10;11.80;101711.00;;;;5322738;26;20271;-80
2024/04/20 05:05:52;;;;;;;3.35;0.85;;;10.20;64.10;11.80;101716.00;;;;5350436;26;20279;-80
2024/04/20 05:08:21;;;;;;;1.92;0.60;;;10.20;64.00;11.80;101713.00;;;;5323269;26;20659;-81
2024/04/20 05:10:52;;;;;;;4.93;0.90;;;10.20;64.00;11.80;101720.00;;;;5329534;26;20374;-81
2024/04/20 05:13:21;;;;;;;3.65;0.80;;;10.20;63.90;11.80;101723.00;;;;5332950;26;20231;-79
2024/04/20 05:15:49;;;;;;;5.63;0.93;;;10.20;64.00;11.90;101724.00;;;;5331794;26;20353;-80
2024/04/20 05:18:20;;;;;;;4.03;0.82;;;10.20;64.00;11.90;101718.00;;;;5316326;26;20229;-80
2024/04/20 05:20:48;;;;;;;2.58;0.82;;;10.20;64.10;11.90;101721.00;;;;5336266;26;20250;-79
2024/04/20 05:23:17;;;;;;;5.72;0.70;;;10.20;64.00;11.90;101716.00;;;;5339728;26;20239;-78
2024/04/20 05:25:46;;;;;;;3.47;0.93;;;10.20;64.10;11.90;101718.00;;;;5337837;26;20278;-80
2024/04/20 05:28:17;;;;;;;4.55;0.77;;;10.30;64.20;11.90;101720.00;;;;5343182;26;20219;-79
2024/04/20 05:30:45;;;;;;;6.22;1.10;;;10.30;64.20;12.00;101736.00;;;;5336714;26;20343;-79
2024/04/20 05:33:15;;;;;;;2.55;0.60;;;10.30;64.20;12.00;101739.00;;;;5307936;26;20315;-79
2024/04/20 05:35:44;;;;;;;4.50;0.70;;;10.30;64.20;12.00;101743.00;;;;5314524;26;20282;-78
2024/04/20 05:38:13;;;;;;;2.78;0.75;;;10.40;64.10;12.10;101736.00;;;;5341169;26;20333;-79
2024/04/20 05:40:41;;;;;;;4.10;0.85;;;10.40;64.10;12.10;101739.00;;;;5341286;26;20343;-78
2024/04/20 05:43:10;;;;;;;3.65;0.85;;;10.40;64.20;12.10;101747.00;;;;5340695;26;20232;-79
2024/04/20 05:45:45;;;;;;;3.13;1.13;;;10.40;64.20;12.10;101752.00;;;;5318116;26;20287;-79
2024/04/20 05:48:14;;;;;;;3.88;0.93;;;10.50;64.20;12.20;101761.00;;;;5339523;26;20780;-79
2024/04/20 05:50:45;;;;;;;3.90;0.50;;;10.50;64.40;12.20;101760.00;;;;5341471;26;20314;-79
2024/04/20 05:53:14;;;;;;;2.47;0.75;;;10.50;64.10;12.30;101756.00;;;;5331366;26;20243;-79
2024/04/20 05:55:43;;;;;;;2.17;0.60;;;10.50;64.10;12.30;101767.00;;;;5341987;26;20336;-80
2024/04/20 05:58:12;;;;;;;6.20;1.17;;;10.60;64.20;12.40;101776.00;;;;5342318;26;20336;-79
2024/04/20 06:00:46;;;;;;;3.67;0.68;;;10.60;64.20;12.40;101768.00;;;;5322022;26;20284;-79
2024/04/20 06:03:14;;;;;;;6.82;1.00;;;10.70;64.20;12.40;101769.00;;;;5332549;26;20582;-79
2024/04/20 06:05:46;;;;;;;5.50;0.80;;;10.70;64.10;12.50;101772.00;;;;5322740;26;20844;-80
2024/04/20 06:08:14;;;;;;;5.75;0.98;;;10.80;64.00;12.50;101786.00;;;;5321845;26;21054;-80
2024/04/20 06:10:43;;;;;;;3.45;1.05;;;10.80;64.00;12.50;101786.00;;;;5327710;26;20243;-79
2024/04/20 06:13:12;;;;;;;1.92;0.57;;;10.80;64.00;12.60;101789.00;;;;5349310;26;20753;-79
2024/04/20 06:15:41;;;;;;;4.00;1.08;;;10.90;64.00;12.60;101791.00;;;;5322948;26;20349;-80
2024/04/20 06:18:10;;;;;;;4.75;1.10;;;10.90;63.80;12.60;101793.00;;;;5342505;26;20346;-79
2024/04/20 06:20:40;;;;;;;9.40;1.25;;;10.90;63.70;12.70;101792.00;;;;5340816;26;20356;-80
2024/04/20 06:23:06;;;;;;;5.55;1.02;;;11.00;63.90;12.70;101792.00;;;;5307397;26;20255;-79
2024/04/20 06:25:36;;;;;;;5.22;1.02;;;11.10;64.00;12.80;101806.00;;;;5334255;26;20227;-80
2024/04/20 06:28:05;;;;;;;2.70;0.80;;;11.10;64.10;12.90;101803.00;;;;5339871;26;20294;-80
2024/04/20 06:30:34;;;;;;;5.50;1.30;;;11.20;64.30;13.00;101801.00;;;;5336208;26;20348;-80
2024/04/20 06:33:05;;;;;;;7.68;1.13;;;11.20;64.00;13.10;101811.00;;;;5335208;26;20741;-79
2024/04/20 06:35:34;;;;;;;4.65;0.70;;;11.30;64.10;13.10;101809.00;;;;5342215;26;20227;-80
2024/04/20 06:38:02;;;;;;;3.40;1.05;;;11.40;63.90;13.20;101814.00;;;;5337115;26;20258;-79
2024/04/20 06:40:31;;;;;;;4.53;0.85;;;11.50;63.80;13.30;101820.00;;;;5333656;26;20233;-79
2024/04/20 06:43:00;;;;;;;2.85;0.70;;;11.60;63.60;13.30;101821.00;;;;5315997;26;20295;-78
2024/04/20 06:45:28;;;;;;;4.47;0.82;;;11.60;63.40;13.40;101831.00;;;;5337936;26;20235;-80
2024/04/20 06:47:57;;;;;;;4.50;0.68;;;11.70;63.20;13.40;101829.00;;;;5336398;26;20348;-79
2024/04/20 06:50:28;;;;;;;3.30;0.90;;;11.70;63.00;13.40;101832.00;;;;5324887;26;20739;-79
2024/04/20 06:52:57;;;;;;;2.45;0.70;;;11.80;62.80;13.50;101837.00;;;;5308669;26;20359;-78
2024/04/20 06:55:25;;;;;;;2.85;0.80;;;11.80;62.60;13.50;101847.00;;;;5321639;26;20299;-78
2024/04/20 06:57:54;;;;;;;3.38;0.40;;;11.80;62.50;13.50;101856.00;;;;5310026;26;20236;-78
2024/04/20 07:00:22;;;;;;;2.50;0.80;;;11.90;62.50;13.60;101864.00;;;;5325627;26;20247;-80
2024/04/20 07:02:51;;;;;;;6.22;0.80;;;11.90;62.30;13.60;101877.00;;;;5363247;26;20242;-80
2024/04/20 07:05:20;;;;;;;5.20;1.17;;;11.90;62.20;13.60;101870.00;;;;5352700;26;20310;-79
2024/04/20 07:07:51;;;;;;;5.93;0.80;;;11.90;62.10;13.60;101869.00;;;;5339424;26;20279;-79
2024/04/20 07:10:20;;;;;;;4.43;0.63;;;11.90;62.20;13.70;101875.00;;;;5340365;26;20239;-78
2024/04/20 07:12:48;;;;;;;7.05;1.33;;;11.90;62.30;13.70;101886.00;;;;5330017;26;20235;-78
2024/04/20 07:15:17;;;;;;;3.50;0.57;;;11.90;62.20;13.60;101881.00;;;;5336223;26;20243;-78
2024/04/20 07:17:48;;;;;;;4.72;0.73;;;11.90;61.80;13.60;101888.00;;;;5338817;26;20283;-78
2024/04/20 07:20:18;;;;;;;3.72;0.77;;;11.90;61.50;13.60;101890.00;;;;5338634;26;20282;-78
2024/04/20 07:22:47;;;;;;;3.60;0.93;;;11.90;61.50;13.50;101890.00;;;;5332770;26;20275;-78
2024/04/20 07:25:18;;;;;;;6.22;0.77;;;11.90;61.30;13.50;101895.00;;;;5338275;26;20322;-79
2024/04/20 07:27:47;;;;;;;3.45;0.90;;;11.90;61.30;13.50;101892.00;;;;5322802;26;20337;-80
2024/04/20 07:30:16;;;;;;;3.35;0.75;;;11.80;61.20;13.50;101899.00;;;;5322020;26;20323;-79
2024/04/20 07:32:44;;;;;;;2.30;0.50;;;11.80;61.20;13.40;101907.00;;;;5340907;26;20266;-79
2024/04/20 07:35:13;;;;;;;1.88;0.80;;;11.80;61.20;13.40;101911.00;;;;5326939;26;20247;-80
2024/04/20 07:37:42;;;;;;;4.18;1.00;;;11.80;61.20;13.50;101910.00;;;;5329738;26;20348;-79
2024/04/20 07:40:11;;;;;;;2.58;0.80;;;11.80;61.20;13.50;101898.00;;;;5326585;26;20957;-80
2024/04/20 07:42:43;;;;;;;2.75;0.75;;;11.80;61.40;13.60;101914.00;;;;5334808;26;20232;-78
2024/04/20 07:45:11;;;;;;;3.00;0.82;;;11.90;61.80;13.70;101911.00;;;;5337569;26;20733;-80
2024/04/20 07:47:40;;;;;;;2.75;0.65;;;12.00;62.00;13.80;101924.00;;;;5332894;26;20320;-80
2024/04/20 07:50:11;;;;;;;3.65;0.55;;;12.00;61.80;13.80;101921.00;;;;5315954;26;20247;-80
2024/04/20 07:52:40;;;;;;;6.50;0.70;;;12.10;61.40;13.90;101918.00;;;;5338049;26;20270;-79
2024/04/20 07:55:09;;;;;;;3.78;0.88;;;12.20;61.30;14.00;101920.00;;;;5341129;26;20767;-79
2024/04/20 07:57:38;;;;;;;4.03;0.50;;;12.20;61.00;14.10;101922.00;;;;5336775;26;20250;-78
2024/04/20 08:00:10;;;;;;;3.65;1.05;;;12.30;60.90;14.00;101938.00;;;;5308330;26;20351;-78
2024/04/20 08:02:39;;;;;;;3.63;0.65;;;12.40;60.80;14.10;101927.00;;;;5328949;26;20274;-79
2024/04/20 08:05:09;;;;;;;3.85;1.13;;;12.40;60.50;14.10;101929.00;;;;5307188;26;20229;-79
2024/04/20 08:07:37;;;;;;;6.53;0.63;;;12.50;60.10;14.10;101934.00;;;;5330348;26;20291;-79
2024/04/20 08:10:06;;;;;;;11.40;1.00;;;12.50;60.20;14.20;101930.00;;;;5333154;26;20251;-79
2024/04/20 08:12:35;;;;;;;4.78;0.68;;;12.50;60.10;14.30;101939.00;;;;5337460;26;20287;-79
2024/04/20 08:15:05;;;;;;;8.43;0.70;;;12.60;60.20;14.40;101948.00;;;;5340181;26;20231;-81
2024/04/20 08:17:37;;;;;;;4.68;0.73;;;12.70;59.80;14.40;101967.00;;;;5329176;26;20244;-81
2024/04/20 08:20:06;;;;;;;1.65;0.68;;;12.70;59.60;14.40;101957.00;;;;5323741;26;20258;-79
2024/04/20 08:22:35;;;;;;;2.40;0.50;;;12.80;59.30;14.40;101962.00;;;;5335917;26;20381;-79
2024/04/20 08:25:03;;;;;;;0.80;0.20;;;12.80;59.30;14.50;101966.00;;;;5338640;26;20335;-79
2024/04/20 08:27:32;;;;;;;2.47;0.80;;;12.80;59.60;14.60;101967.00;;;;5324841;26;20345;-79
2024/04/20 08:30:01;;;;;;;2.58;0.57;;;12.90;59.80;14.80;101976.00;;;;5325618;26;20287;-79
2024/04/20 08:32:30;;;;;;;4.10;0.50;;;13.00;60.00;14.90;101979.00;;;;5331162;26;20372;-79
2024/04/20 08:35:01;;;;;;;3.63;0.85;;;13.10;60.20;15.00;101989.00;;;;5325017;26;20250;-79
2024/04/20 08:37:29;;;;;;;5.07;0.50;;;13.20;59.80;15.10;101987.00;;;;5338216;26;20229;-78
2024/04/20 08:39:58;;;;;;;5.82;0.60;;;13.30;59.70;15.10;101999.00;;;;5343347;26;20341;-79
2024/04/20 08:42:33;;;;;;;3.63;0.70;;;13.40;59.60;15.00;101986.00;;;;5335890;26;20341;-79
2024/04/20 08:45:03;;;;;;;3.45;0.43;;;13.40;59.30;15.00;101996.00;;;;5331651;26;20330;-79
2024/04/20 08:47:34;;;;;;;3.88;0.80;;;13.50;59.00;15.00;102000.00;;;;5326312;26;21134;-79
2024/04/20 08:50:07;;;;;;;3.08;0.60;;;13.50;58.80;15.00;101994.00;;;;5329287;26;20233;-79
2024/04/20 08:52:40;;;;;;;2.75;0.47;;;13.50;58.70;15.10;102001.00;;;;5313344;26;20780;-79
2024/04/20 08:55:11;;;;;;;2.67;0.85;;;13.60;58.80;15.20;101999.00;;;;5334358;26;20256;-79
2024/04/20 08:57:42;;;;;;;4.72;0.93;;;13.60;58.70;15.30;102002.00;;;;5323698;26;20270;-78
2024/04/20 09:00:13;;;;;;;2.78;0.40;;;13.70;58.80;15.40;101988.00;;;;5338318;26;20279;-80
2024/04/20 09:02:42;;;;;;;4.82;1.02;;;13.70;58.80;15.40;102000.00;;;;5313596;26;20298;-80
2024/04/20 09:05:14;;;;;;;4.28;0.98;;;13.80;58.20;15.40;101998.00;;;;5316815;26;20248;-80
2024/04/20 09:07:44;;;;;;;3.63;0.80;;;13.80;58.10;15.50;102000.00;;;;5319783;26;20419;-79
2024/04/20 09:10:12;;;;;;;1.30;0.40;;;13.90;58.20;15.50;101998.00;;;;5322655;26;20295;-80
2024/04/20 09:12:41;;;;;;;5.75;0.98;;;13.90;58.10;15.60;102003.00;;;;5343002;26;20231;-79
2024/04/20 09:15:11;;;;;;;4.03;0.43;;;13.90;57.90;15.60;101999.00;;;;5339431;26;21144;-80
2024/04/20 09:17:40;;;;;;;2.83;0.60;;;14.00;57.50;15.60;102007.00;;;;5356344;26;20330;-79
2024/04/20 09:20:14;;;;;;;4.63;0.82;;;14.00;57.00;15.40;102011.00;;;;5377358;26;20235;-80
2024/04/20 09:22:43;;;;;;;2.45;0.40;;;14.00;56.90;15.50;102012.00;;;;5377927;26;20210;-80
2024/04/20 09:25:11;;;;;;;4.07;0.93;;;14.00;56.80;15.40;102016.00;;;;5378082;26;20270;-80
2024/04/20 09:27:40;;;;;;;3.97;0.65;;;13.90;56.80;15.50;102009.00;;;;5341721;26;20307;-80
2024/04/20 09:30:12;;;;;;;2.90;0.88;;;13.90;57.00;15.40;102011.00;;;;5328965;26;20235;-79
2024/04/20 09:32:45;;;;;;;6.38;0.95;;;13.90;57.00;15.50;102008.00;;;;5336011;26;20741;-79
2024/04/20 09:35:18;;;;;;;3.63;0.60;;;13.90;57.70;15.50;102005.00;;;;5326201;26;20731;-79
2024/04/20 09:37:47;;;;;;;4.15;0.88;;;13.90;57.50;15.60;102003.00;;;;5328025;26;20231;-80
2024/04/20 09:40:16;;;;;;;3.05;0.80;;;13.90;57.50;15.70;102007.00;;;;5340581;26;20244;-80
2024/04/20 09:42:45;;;;;;;2.30;0.50;;;14.00;57.70;15.80;102003.00;;;;5335565;26;20245;-79
2024/04/20 09:45:14;;;;;;;5.35;0.82;;;14.10;57.60;15.80;101995.00;;;;5320459;26;20244;-79
2024/04/20 09:47:43;;;;;;;8.80;1.38;;;14.10;57.50;15.90;102024.00;;;;5311070;26;20244;-78
2024/04/20 09:50:12;;;;;;;3.92;1.27;;;14.20;57.40;15.90;102002.00;;;;5312689;26;20910;-79
2024/04/20 09:52:53;;;;;;;3.25;0.70;;;14.20;56.90;15.80;102016.00;;;;5341632;26;20212;-78
2024/04/20 09:55:30;;;;;;;4.55;0.73;;;14.30;56.00;15.80;102012.00;;;;5335557;26;20295;-78
2024/04/20 09:58:02;;;;;;;4.25;0.70;;;14.30;55.90;15.90;101999.00;;;;5323415;26;20780;-78
2024/04/20 10:00:35;;;;;;;3.13;0.52;;;14.30;56.30;16.00;102001.00;;;;5341317;26;20338;-79
2024/04/20 10:03:07;;;;;;;2.60;0.50;;;14.40;56.00;16.00;102002.00;;;;5318869;26;20232;-79
2024/04/20 10:05:40;;;;;;;3.45;0.50;;;14.40;55.80;16.00;102020.00;;;;5323892;26;20296;-80
2024/04/20 10:08:13;;;;;;;3.28;0.60;;;14.40;55.60;15.90;102028.00;;;;5318158;26;20333;-79
2024/04/20 10:10:45;;;;;;;3.00;0.98;;;14.50;55.70;15.90;102034.00;;;;5338076;26;21163;-80
2024/04/20 10:13:17;;;;;;;1.92;0.40;;;14.40;55.60;15.80;102022.00;;;;5341536;26;20235;-80
2024/04/20 10:15:48;;;;;;;2.22;0.43;;;14.30;55.80;15.70;102025.00;;;;5338419;26;20328;-79
2024/04/20 10:18:18;;;;;;;4.00;0.90;;;14.30;55.80;15.70;102027.00;;;;5338249;26;20280;-80
2024/04/20 10:20:48;;;;;;;4.18;0.60;;;14.20;55.90;15.60;102030.00;;;;5325006;26;20296;-82
2024/04/20 10:23:22;;;;;;;2.25;0.45;;;14.10;56.00;15.60;102019.00;;;;5328078;26;20236;-79
2024/04/20 10:25:53;;;;;;;2.45;0.70;;;14.10;56.30;15.80;102008.00;;;;5306897;26;20232;-80
2024/04/20 10:28:30;;;;;;;6.60;0.98;;;14.10;56.90;15.80;102015.00;;;;5333154;26;20409;-80
2024/04/20 10:31:00;;;;;;;2.72;0.93;;;14.10;57.00;16.00;102032.00;;;;5341573;26;20253;-80
2024/04/20 10:33:30;;;;;;;2.58;0.45;;;14.20;57.30;16.00;102057.00;;;;5340029;26;20239;-80
2024/04/20 10:36:01;;;;;;;3.20;0.60;;;14.30;57.20;15.90;102065.00;;;;5340810;26;20232;-80
2024/04/20 10:38:33;;;;;;;1.63;0.35;;;14.30;56.80;15.80;102065.00;;;;5340844;26;20343;-80
2024/04/20 10:41:14;;;;;;;3.50;0.82;;;14.30;56.60;15.60;102067.00;;;;5341795;26;20219;-79
2024/04/20 10:43:41;;;;;;;1.77;0.40;;;14.20;56.60;15.60;102071.00;;;;5311251;26;20760;-81
2024/04/20 10:46:10;;;;;;;3.40;0.68;;;14.10;56.50;15.40;102077.00;;;;5306964;26;20271;-80
2024/04/20 10:48:41;;;;;;;4.00;0.80;;;14.00;56.50;15.30;102064.00;;;;5308199;26;20302;-80
2024/04/20 10:51:12;;;;;;;2.20;0.75;;;13.80;56.60;15.20;102066.00;;;;5307411;26;21188;-80
2024/04/20 10:53:43;;;;;;;1.48;0.50;;;13.70;56.70;15.10;102057.00;;;;5335468;26;20219;-80
2024/04/20 10:56:12;;;;;;;4.25;0.95;;;13.60;57.10;15.10;102060.00;;;;5338712;26;20348;-80